SBR1 KSFB-KIAH
Flight info
| Callsign | SBR1 |
|---|---|
| Flight time | N/A |
| Altitude | 38000 |
| Route | OSPRY GDUNN KNOST REMIS Y280 LEV SOULL1 |
| Aircraft | B77W/H-SDE1E2E3FGHIJ2J3J4J5M1RWXY/LB1D1 |
Departure
| Time | 2026-04-27 23:50 |
|---|---|
| Airport | Orlando Sanford International Airport (KSFB) |
Arrival
| Time | N/A |
|---|---|
| Airport | George Bush Intercontinental Airport (KIAH) |
| Time | Latitude | Longitude | Altitude | Speed | Heading |
|---|---|---|---|---|---|
| 2026-04-27 23:14 | 28.77698 | -81.24567 | 55 ft | 0 kts | 178° |
| 2026-04-27 23:43 | 28.77712 | -81.24567 | 52 ft | 4 kts | 178° |
| 2026-04-27 23:44 | 28.77738 | -81.24565 | 53 ft | 4 kts | 200° |
| 2026-04-27 23:44 | 28.77758 | -81.24549 | 57 ft | 4 kts | 244° |
| 2026-04-27 23:44 | 28.77764 | -81.24525 | 59 ft | 1 kts | 270° |
| 2026-04-27 23:46 | 28.77764 | -81.24526 | 59 ft | 2 kts | 270° |
| 2026-04-27 23:46 | 28.77763 | -81.24583 | 56 ft | 9 kts | 269° |
| 2026-04-27 23:46 | 28.77762 | -81.24629 | 59 ft | 10 kts | 269° |
| 2026-04-27 23:47 | 28.77769 | -81.24727 | 57 ft | 13 kts | 290° |
| 2026-04-27 23:47 | 28.77823 | -81.24810 | 53 ft | 13 kts | 310° |
| 2026-04-27 23:47 | 28.77878 | -81.24890 | 51 ft | 13 kts | 305° |
| 2026-04-27 23:47 | 28.77937 | -81.24968 | 59 ft | 13 kts | 318° |
| 2026-04-27 23:48 | 28.78012 | -81.25022 | 58 ft | 13 kts | 348° |
| 2026-04-27 23:48 | 28.78058 | -81.25053 | 53 ft | 14 kts | 304° |
| 2026-04-27 23:48 | 28.78061 | -81.25186 | 57 ft | 18 kts | 261° |
| 2026-04-27 23:48 | 28.78063 | -81.25324 | 54 ft | 18 kts | 271° |
| 2026-04-27 23:49 | 28.78063 | -81.25464 | 54 ft | 17 kts | 271° |
| 2026-04-27 23:49 | 28.78086 | -81.25568 | 56 ft | 14 kts | 326° |
| 2026-04-27 23:49 | 28.78161 | -81.25522 | 53 ft | 16 kts | 78° |
| 2026-04-27 23:49 | 28.78177 | -81.25054 | 52 ft | 117 kts | 89° |
| 2026-04-27 23:50 | 28.78168 | -81.23689 | 222 ft | 211 kts | 88° |
| 2026-04-27 23:50 | 28.78082 | -81.21977 | 884 ft | 222 kts | 99° |
| 2026-04-27 23:50 | 28.77257 | -81.20453 | 1632 ft | 237 kts | 140° |
| 2026-04-27 23:50 | 28.75696 | -81.19680 | 2225 ft | 259 kts | 167° |
| 2026-04-27 23:51 | 28.73867 | -81.19472 | 2864 ft | 270 kts | 181° |
| 2026-04-27 23:51 | 28.72065 | -81.20140 | 3634 ft | 280 kts | 216° |
| 2026-04-27 23:51 | 28.70721 | -81.21733 | 4554 ft | 280 kts | 233° |
| 2026-04-27 23:51 | 28.69573 | -81.23536 | 5460 ft | 282 kts | 236° |
| 2026-04-27 23:52 | 28.68456 | -81.25383 | 6386 ft | 283 kts | 236° |
| 2026-04-27 23:52 | 28.67342 | -81.27253 | 7250 ft | 287 kts | 236° |
| 2026-04-27 23:52 | 28.66216 | -81.29147 | 8100 ft | 291 kts | 237° |
| 2026-04-27 23:52 | 28.65071 | -81.31063 | 8951 ft | 294 kts | 236° |
| 2026-04-27 23:53 | 28.63919 | -81.32980 | 9691 ft | 300 kts | 234° |
| 2026-04-27 23:53 | 28.62743 | -81.34931 | 10602 ft | 301 kts | 234° |
| 2026-04-27 23:53 | 28.61515 | -81.36956 | 11004 ft | 323 kts | 235° |
| 2026-04-27 23:53 | 28.60183 | -81.39152 | 11221 ft | 350 kts | 236° |
| 2026-04-27 23:54 | 28.58753 | -81.41511 | 11596 ft | 371 kts | 237° |
| 2026-04-27 23:54 | 28.57253 | -81.43980 | 12104 ft | 388 kts | 237° |
| 2026-04-27 23:54 | 28.55699 | -81.46532 | 12975 ft | 394 kts | 237° |
| 2026-04-27 23:54 | 28.54133 | -81.49102 | 13958 ft | 398 kts | 237° |
| 2026-04-27 23:55 | 28.52546 | -81.51702 | 14880 ft | 402 kts | 237° |
| 2026-04-27 23:55 | 28.50940 | -81.54330 | 15747 ft | 408 kts | 237° |
| 2026-04-27 23:55 | 28.49307 | -81.57001 | 16582 ft | 414 kts | 237° |
| 2026-04-27 23:55 | 28.47657 | -81.59701 | 17422 ft | 419 kts | 237° |
| 2026-04-27 23:56 | 28.45981 | -81.62441 | 18234 ft | 424 kts | 238° |
| 2026-04-27 23:56 | 28.44289 | -81.65206 | 19018 ft | 429 kts | 238° |
| 2026-04-27 23:56 | 28.42573 | -81.68008 | 19792 ft | 434 kts | 238° |
| 2026-04-27 23:56 | 28.40841 | -81.70834 | 20541 ft | 439 kts | 238° |
| 2026-04-27 23:57 | 28.39087 | -81.73696 | 21271 ft | 443 kts | 238° |
| 2026-04-27 23:57 | 28.37318 | -81.76577 | 21967 ft | 447 kts | 238° |
| 2026-04-27 23:57 | 28.35530 | -81.79493 | 22635 ft | 452 kts | 238° |
| 2026-04-27 23:57 | 28.33725 | -81.82428 | 23260 ft | 456 kts | 239° |
| 2026-04-27 23:58 | 28.31913 | -81.85402 | 23893 ft | 458 kts | 240° |
| 2026-04-27 23:58 | 28.30349 | -81.88548 | 24462 ft | 459 kts | 249° |
| 2026-04-27 23:58 | 28.29129 | -81.91893 | 25046 ft | 459 kts | 254° |
| 2026-04-27 23:58 | 28.28237 | -81.95361 | 25622 ft | 458 kts | 261° |
| 2026-04-27 23:59 | 28.27565 | -81.98903 | 26205 ft | 460 kts | 262° |
| 2026-04-27 23:59 | 28.26934 | -82.02352 | 26744 ft | 463 kts | 262° |
| 2026-04-27 23:59 | 28.26280 | -82.05934 | 27284 ft | 465 kts | 262° |
| 2026-04-27 23:59 | 28.25614 | -82.09541 | 27783 ft | 468 kts | 262° |
| 2026-04-28 00:00 | 28.24943 | -82.13119 | 28271 ft | 471 kts | 262° |
| 2026-04-28 00:00 | 28.24252 | -82.16764 | 28738 ft | 473 kts | 262° |
| 2026-04-28 00:00 | 28.23553 | -82.20422 | 29174 ft | 476 kts | 262° |
| 2026-04-28 00:00 | 28.22846 | -82.24097 | 29583 ft | 478 kts | 261° |
| 2026-04-28 00:01 | 28.22134 | -82.27793 | 29958 ft | 481 kts | 261° |
| 2026-04-28 00:01 | 28.21418 | -82.31495 | 30384 ft | 481 kts | 261° |
| 2026-04-28 00:01 | 28.20701 | -82.35200 | 30863 ft | 480 kts | 261° |
| 2026-04-28 00:01 | 28.19987 | -82.38883 | 31383 ft | 478 kts | 261° |
| 2026-04-28 00:02 | 28.19274 | -82.42561 | 31871 ft | 477 kts | 261° |
| 2026-04-28 00:02 | 28.18564 | -82.46222 | 32312 ft | 476 kts | 261° |
| 2026-04-28 00:02 | 28.17853 | -82.49885 | 32739 ft | 475 kts | 261° |
| 2026-04-28 00:02 | 28.17144 | -82.53532 | 33176 ft | 474 kts | 261° |
| 2026-04-28 00:03 | 28.16432 | -82.57179 | 33576 ft | 473 kts | 261° |
| 2026-04-28 00:03 | 28.15723 | -82.60810 | 33995 ft | 472 kts | 261° |
| 2026-04-28 00:03 | 28.15014 | -82.64437 | 34423 ft | 470 kts | 261° |
| 2026-04-28 00:03 | 28.14310 | -82.68041 | 34835 ft | 468 kts | 261° |
| 2026-04-28 00:04 | 28.13606 | -82.71643 | 35214 ft | 467 kts | 261° |
| 2026-04-28 00:04 | 28.12203 | -82.78804 | 35946 ft | 465 kts | 262° |